Detall de PIREP

Printer-friendly versionPDF version

[2013/09/03 09:03:00]
Flight IATA:CT2109
Pilot Number:042
Company ICAO:CAT
Aircraft Type:F100/A
PAX:29
Aircraft Registration:PFJ
Departing Airport: LEMG
Destination Airport: LEVC
Alternate Airport:LEPA
Online: VATSIM
Route:ROLAS UN851 RESTU UN860 NARGO
Flight Level:F280
No Slew and time accel
No pause
Crash detect
Detect pilot in Cockpit between each 30 and 45 minutes
09:03 Zero fuel Weight: 81826 Lbs, Fuel Weight: 17773 Lbs
09:03 VATSIM:LEMG 030830Z 10006KT 070V140 9999 FEW015 BKN020 25/19 Q1022 NOSIG
09:03 VATSIM:LEVC 030830Z VRB02KT 9999 FEW030 25/18 Q1023 NOSIG
09:03 VOICE CATALONIAN
09:07 Parking Brakes off
09:10 Take-off
09:10 Take off Weight: 99242 Lbs
09:10 Wind: 000º @ 000 Knots Heading: 131º
09:10 POS N36º 40´ 25´´ W004º 29´ 50´´
09:10 Gear Up: 164 Knots
09:10 Flaps:2 at 164 Knots
09:11 Flaps:1 at 179 Knots
09:11 Flaps:0 at 193 Knots
09:25 Wind:294º@052 Knots Heading: 056º Ground Speed: 373 Knots Altitude 27224 ft
09:25 TOC
09:25 Fuel Weight: 15445 Lb
09:40 Wind:302º@075 Knots Heading: 018º Ground Speed: 441 Knots Altitude 28316 ft
09:46 TOD
09:46 Fuel Weight: 13709 Lb
09:50 Flaps:1 at 190 Knots
09:50 Flaps:0 at 184 Knots
09:55 Wind:323º@005 Knots Heading: 054º Ground Speed: 221 Knots Altitude 10636 ft
09:56 Flaps:1 at 185 Knots
09:56 Flaps:2 at 183 Knots
09:58 Gear Down: 182 Knots
09:58 Flaps:3 at 182 Knots
10:02 TouchDown:Rate -117 ft/min Speed: 149 Knots
10:02 VATSIM:LEVC 030930Z 00000KT 9999 FEW030 28/18 Q1023 NOSIG
10:02 Land
10:02 Wind:209º@000 Knots
10:02 Heading: 296º
10:02 Flight Duration: 00:52
10:02 Landing Weight: 94768 Lbs
10:02 POS N39º 29´ 24´´ W000º 29´ 00´´
10:07 Parking brakes on
10:07 Block to Block Duration: 01:00
10:07 Final Fuel: 12722 Lbls
10:07 Spent Fuel: 5050 Lbls
10:07 Flight Length: 191 NM
10:07 TOD Land Length: 66 NM

Exportar CSV

Powered by Drupal - Modified by Danger4k